sensor_id;sensor_type;location;lat;lon;timestamp;P1;durP1;ratioP1;P2;durP2;ratioP2
63038;SDS011;49125;48.812;9.206;2022-09-17T00:01:24;2.77;;;1.00;;
63038;SDS011;49125;48.812;9.206;2022-09-17T00:03:51;2.53;;;1.20;;
63038;SDS011;49125;48.812;9.206;2022-09-17T00:06:19;2.70;;;1.20;;
63038;SDS011;49125;48.812;9.206;2022-09-17T00:08:46;1.77;;;1.00;;
63038;SDS011;49125;48.812;9.206;2022-09-17T00:11:16;2.70;;;1.20;;
63038;SDS011;49125;48.812;9.206;2022-09-17T00:13:45;2.20;;;1.30;;
63038;SDS011;49125;48.812;9.206;2022-09-17T00:16:12;2.13;;;1.07;;
63038;SDS011;49125;48.812;9.206;2022-09-17T00:18:37;1.50;;;0.93;;
63038;SDS011;49125;48.812;9.206;2022-09-17T00:21:06;2.73;;;1.10;;
63038;SDS011;49125;48.812;9.206;2022-09-17T00:23:39;1.73;;;1.00;;
63038;SDS011;49125;48.812;9.206;2022-09-17T00:26:04;1.90;;;1.20;;
63038;SDS011;49125;48.812;9.206;2022-09-17T00:28:30;2.33;;;1.20;;
63038;SDS011;49125;48.812;9.206;2022-09-17T00:30:56;3.53;;;1.20;;
63038;SDS011;49125;48.812;9.206;2022-09-17T00:33:22;2.63;;;1.23;;
63038;SDS011;49125;48.812;9.206;2022-09-17T00:35:56;1.67;;;1.23;;
63038;SDS011;49125;48.812;9.206;2022-09-17T00:38:23;1.57;;;1.10;;
63038;SDS011;49125;48.812;9.206;2022-09-17T00:40:48;2.00;;;1.13;;
63038;SDS011;49125;48.812;9.206;2022-09-17T00:43:29;1.63;;;1.10;;
63038;SDS011;49125;48.812;9.206;2022-09-17T00:46:02;3.37;;;1.50;;
63038;SDS011;49125;48.812;9.206;2022-09-17T00:48:30;4.73;;;1.50;;
63038;SDS011;49125;48.812;9.206;2022-09-17T00:50:56;1.30;;;1.20;;
63038;SDS011;49125;48.812;9.206;2022-09-17T00:53:24;1.67;;;1.17;;
63038;SDS011;49125;48.812;9.206;2022-09-17T00:55:54;2.80;;;1.10;;
63038;SDS011;49125;48.812;9.206;2022-09-17T00:58:25;3.37;;;1.60;;
63038;SDS011;49125;48.812;9.206;2022-09-17T01:00:52;4.37;;;1.50;;
63038;SDS011;49125;48.812;9.206;2022-09-17T01:03:18;1.57;;;1.20;;
63038;SDS011;49125;48.812;9.206;2022-09-17T01:05:44;1.80;;;1.30;;
63038;SDS011;49125;48.812;9.206;2022-09-17T01:08:18;4.10;;;1.27;;
63038;SDS011;49125;48.812;9.206;2022-09-17T01:13:47;2.67;;;1.07;;
63038;SDS011;49125;48.812;9.206;2022-09-17T01:16:27;4.50;;;1.70;;
63038;SDS011;49125;48.812;9.206;2022-09-17T01:19:20;2.10;;;1.67;;
63038;SDS011;49125;48.812;9.206;2022-09-17T01:24:59;3.20;;;1.60;;
63038;SDS011;49125;48.812;9.206;2022-09-17T01:27:36;2.87;;;1.60;;
63038;SDS011;49125;48.812;9.206;2022-09-17T01:33:34;1.70;;;1.43;;
63038;SDS011;49125;48.812;9.206;2022-09-17T01:39:05;4.17;;;1.80;;
63038;SDS011;49125;48.812;9.206;2022-09-17T01:41:39;4.30;;;1.60;;
63038;SDS011;49125;48.812;9.206;2022-09-17T01:44:21;4.33;;;1.97;;
63038;SDS011;49125;48.812;9.206;2022-09-17T01:47:00;4.40;;;1.80;;
63038;SDS011;49125;48.812;9.206;2022-09-17T01:49:33;2.20;;;1.40;;
63038;SDS011;49125;48.812;9.206;2022-09-17T01:52:02;2.47;;;1.37;;
63038;SDS011;49125;48.812;9.206;2022-09-17T01:54:30;2.47;;;1.77;;
63038;SDS011;49125;48.812;9.206;2022-09-17T01:57:03;3.33;;;1.63;;
63038;SDS011;49125;48.812;9.206;2022-09-17T01:59:32;2.37;;;1.50;;
63038;SDS011;49125;48.812;9.206;2022-09-17T02:02:14;3.13;;;1.47;;
63038;SDS011;49125;48.812;9.206;2022-09-17T02:05:05;3.03;;;1.40;;
63038;SDS011;49125;48.812;9.206;2022-09-17T02:07:39;2.33;;;1.43;;
63038;SDS011;49125;48.812;9.206;2022-09-17T02:10:12;2.67;;;1.50;;
63038;SDS011;49125;48.812;9.206;2022-09-17T02:12:43;4.33;;;1.50;;
63038;SDS011;49125;48.812;9.206;2022-09-17T02:15:18;3.07;;;1.53;;
63038;SDS011;49125;48.812;9.206;2022-09-17T02:17:48;6.60;;;1.57;;
63038;SDS011;49125;48.812;9.206;2022-09-17T02:20:22;4.30;;;1.43;;
63038;SDS011;49125;48.812;9.206;2022-09-17T02:22:53;3.70;;;1.73;;
63038;SDS011;49125;48.812;9.206;2022-09-17T02:28:07;3.40;;;1.80;;
63038;SDS011;49125;48.812;9.206;2022-09-17T02:30:39;3.67;;;1.67;;
63038;SDS011;49125;48.812;9.206;2022-09-17T02:33:05;4.70;;;1.57;;
63038;SDS011;49125;48.812;9.206;2022-09-17T02:35:35;5.13;;;1.80;;
63038;SDS011;49125;48.812;9.206;2022-09-17T02:38:01;2.10;;;1.33;;
63038;SDS011;49125;48.812;9.206;2022-09-17T02:40:28;4.33;;;1.60;;
63038;SDS011;49125;48.812;9.206;2022-09-17T02:46:11;4.73;;;1.70;;
63038;SDS011;49125;48.812;9.206;2022-09-17T02:51:59;3.63;;;1.60;;
63038;SDS011;49125;48.812;9.206;2022-09-17T02:54:30;4.43;;;1.80;;
63038;SDS011;49125;48.812;9.206;2022-09-17T02:59:55;4.53;;;2.30;;
63038;SDS011;49125;48.812;9.206;2022-09-17T03:02:36;7.47;;;1.73;;
63038;SDS011;49125;48.812;9.206;2022-09-17T03:05:16;5.13;;;1.57;;
63038;SDS011;49125;48.812;9.206;2022-09-17T03:07:43;3.83;;;1.47;;
63038;SDS011;49125;48.812;9.206;2022-09-17T03:10:09;7.33;;;1.77;;
63038;SDS011;49125;48.812;9.206;2022-09-17T03:12:35;3.57;;;1.80;;
63038;SDS011;49125;48.812;9.206;2022-09-17T03:15:01;3.60;;;1.67;;
63038;SDS011;49125;48.812;9.206;2022-09-17T03:17:28;4.53;;;1.40;;
63038;SDS011;49125;48.812;9.206;2022-09-17T03:19:54;5.70;;;1.40;;
63038;SDS011;49125;48.812;9.206;2022-09-17T03:22:19;3.07;;;1.70;;
63038;SDS011;49125;48.812;9.206;2022-09-17T03:24:45;6.03;;;1.73;;
63038;SDS011;49125;48.812;9.206;2022-09-17T03:27:10;5.03;;;1.70;;
63038;SDS011;49125;48.812;9.206;2022-09-17T03:29:36;2.90;;;1.50;;
63038;SDS011;49125;48.812;9.206;2022-09-17T03:32:01;5.87;;;1.80;;
63038;SDS011;49125;48.812;9.206;2022-09-17T03:34:27;4.07;;;1.70;;
63038;SDS011;49125;48.812;9.206;2022-09-17T03:36:52;4.67;;;1.77;;
63038;SDS011;49125;48.812;9.206;2022-09-17T03:39:18;4.13;;;1.60;;
63038;SDS011;49125;48.812;9.206;2022-09-17T03:41:44;2.97;;;1.50;;
63038;SDS011;49125;48.812;9.206;2022-09-17T03:44:09;3.90;;;1.80;;
63038;SDS011;49125;48.812;9.206;2022-09-17T03:46:35;7.40;;;1.87;;
63038;SDS011;49125;48.812;9.206;2022-09-17T03:49:01;5.73;;;1.60;;
63038;SDS011;49125;48.812;9.206;2022-09-17T03:51:27;3.30;;;1.67;;
63038;SDS011;49125;48.812;9.206;2022-09-17T03:53:52;4.27;;;1.90;;
63038;SDS011;49125;48.812;9.206;2022-09-17T03:56:18;4.83;;;1.80;;
63038;SDS011;49125;48.812;9.206;2022-09-17T03:58:43;6.97;;;1.63;;
63038;SDS011;49125;48.812;9.206;2022-09-17T04:01:09;6.40;;;1.87;;
63038;SDS011;49125;48.812;9.206;2022-09-17T04:03:35;10.97;;;2.10;;
63038;SDS011;49125;48.812;9.206;2022-09-17T04:06:01;2.47;;;1.60;;
63038;SDS011;49125;48.812;9.206;2022-09-17T04:08:27;3.00;;;1.80;;
63038;SDS011;49125;48.812;9.206;2022-09-17T04:10:52;5.17;;;1.90;;
63038;SDS011;49125;48.812;9.206;2022-09-17T04:13:18;2.93;;;1.70;;
63038;SDS011;49125;48.812;9.206;2022-09-17T04:15:45;3.13;;;1.33;;
63038;SDS011;49125;48.812;9.206;2022-09-17T04:18:11;4.20;;;2.00;;
63038;SDS011;49125;48.812;9.206;2022-09-17T04:20:36;4.27;;;1.70;;
63038;SDS011;49125;48.812;9.206;2022-09-17T04:23:02;5.30;;;1.60;;
63038;SDS011;49125;48.812;9.206;2022-09-17T04:25:28;7.27;;;1.80;;
63038;SDS011;49125;48.812;9.206;2022-09-17T04:27:54;2.70;;;1.73;;
63038;SDS011;49125;48.812;9.206;2022-09-17T04:30:19;4.13;;;1.63;;
63038;SDS011;49125;48.812;9.206;2022-09-17T04:32:45;3.63;;;1.93;;
63038;SDS011;49125;48.812;9.206;2022-09-17T04:35:11;2.37;;;1.77;;
63038;SDS011;49125;48.812;9.206;2022-09-17T04:37:37;7.60;;;1.97;;
63038;SDS011;49125;48.812;9.206;2022-09-17T04:40:05;5.47;;;1.90;;
63038;SDS011;49125;48.812;9.206;2022-09-17T04:42:32;4.67;;;1.70;;
63038;SDS011;49125;48.812;9.206;2022-09-17T04:44:57;5.50;;;1.87;;
63038;SDS011;49125;48.812;9.206;2022-09-17T04:47:23;3.97;;;1.70;;
63038;SDS011;49125;48.812;9.206;2022-09-17T04:49:49;4.90;;;1.67;;
63038;SDS011;49125;48.812;9.206;2022-09-17T04:52:15;9.13;;;2.13;;
63038;SDS011;49125;48.812;9.206;2022-09-17T04:54:41;3.13;;;1.90;;
63038;SDS011;49125;48.812;9.206;2022-09-17T04:57:06;5.87;;;2.00;;
63038;SDS011;49125;48.812;9.206;2022-09-17T04:59:32;7.97;;;2.00;;
63038;SDS011;49125;48.812;9.206;2022-09-17T05:01:57;3.33;;;1.90;;
63038;SDS011;49125;48.812;9.206;2022-09-17T05:04:23;3.70;;;1.90;;
63038;SDS011;49125;48.812;9.206;2022-09-17T05:06:48;5.30;;;2.37;;
63038;SDS011;49125;48.812;9.206;2022-09-17T05:09:14;4.70;;;1.77;;
63038;SDS011;49125;48.812;9.206;2022-09-17T05:11:40;6.97;;;1.80;;
63038;SDS011;49125;48.812;9.206;2022-09-17T05:14:05;4.50;;;2.40;;
63038;SDS011;49125;48.812;9.206;2022-09-17T05:16:31;6.10;;;2.77;;
63038;SDS011;49125;48.812;9.206;2022-09-17T05:18:57;7.03;;;2.60;;
63038;SDS011;49125;48.812;9.206;2022-09-17T05:21:22;6.20;;;2.10;;
63038;SDS011;49125;48.812;9.206;2022-09-17T05:23:48;7.60;;;3.07;;
63038;SDS011;49125;48.812;9.206;2022-09-17T05:26:14;11.67;;;6.07;;
63038;SDS011;49125;48.812;9.206;2022-09-17T05:28:39;4.00;;;2.97;;
63038;SDS011;49125;48.812;9.206;2022-09-17T05:31:05;2.73;;;1.97;;
63038;SDS011;49125;48.812;9.206;2022-09-17T05:33:31;12.73;;;3.10;;
63038;SDS011;49125;48.812;9.206;2022-09-17T05:35:57;7.97;;;3.50;;
63038;SDS011;49125;48.812;9.206;2022-09-17T05:38:23;7.37;;;2.17;;
63038;SDS011;49125;48.812;9.206;2022-09-17T05:40:49;7.07;;;2.30;;
63038;SDS011;49125;48.812;9.206;2022-09-17T05:43:15;8.03;;;2.20;;
63038;SDS011;49125;48.812;9.206;2022-09-17T05:45:41;7.10;;;2.17;;
63038;SDS011;49125;48.812;9.206;2022-09-17T05:48:08;7.40;;;2.23;;
63038;SDS011;49125;48.812;9.206;2022-09-17T05:50:35;6.53;;;2.57;;
63038;SDS011;49125;48.812;9.206;2022-09-17T05:53:04;5.23;;;2.20;;
63038;SDS011;49125;48.812;9.206;2022-09-17T05:55:33;5.20;;;2.27;;
63038;SDS011;49125;48.812;9.206;2022-09-17T05:57:59;5.77;;;2.60;;
63038;SDS011;49125;48.812;9.206;2022-09-17T06:00:25;4.60;;;1.90;;
63038;SDS011;49125;48.812;9.206;2022-09-17T06:02:57;6.33;;;2.27;;
63038;SDS011;49125;48.812;9.206;2022-09-17T06:05:23;5.50;;;2.00;;
63038;SDS011;49125;48.812;9.206;2022-09-17T06:07:49;5.07;;;2.00;;
63038;SDS011;49125;48.812;9.206;2022-09-17T06:10:14;7.40;;;2.57;;
63038;SDS011;49125;48.812;9.206;2022-09-17T06:12:40;7.57;;;2.73;;
63038;SDS011;49125;48.812;9.206;2022-09-17T06:15:06;5.07;;;2.20;;
63038;SDS011;49125;48.812;9.206;2022-09-17T06:17:33;11.97;;;2.40;;
63038;SDS011;49125;48.812;9.206;2022-09-17T06:19:59;4.37;;;1.93;;
63038;SDS011;49125;48.812;9.206;2022-09-17T06:22:25;4.70;;;2.27;;
63038;SDS011;49125;48.812;9.206;2022-09-17T06:24:51;3.60;;;2.40;;
63038;SDS011;49125;48.812;9.206;2022-09-17T06:27:17;5.07;;;2.10;;
63038;SDS011;49125;48.812;9.206;2022-09-17T06:29:42;10.27;;;4.30;;
63038;SDS011;49125;48.812;9.206;2022-09-17T06:32:08;5.20;;;2.70;;
63038;SDS011;49125;48.812;9.206;2022-09-17T06:34:39;5.53;;;2.00;;
63038;SDS011;49125;48.812;9.206;2022-09-17T06:37:05;5.77;;;2.20;;
63038;SDS011;49125;48.812;9.206;2022-09-17T06:39:31;4.23;;;2.30;;
63038;SDS011;49125;48.812;9.206;2022-09-17T06:41:57;8.80;;;2.43;;
63038;SDS011;49125;48.812;9.206;2022-09-17T06:44:23;4.40;;;2.13;;
63038;SDS011;49125;48.812;9.206;2022-09-17T06:46:49;8.17;;;2.47;;
63038;SDS011;49125;48.812;9.206;2022-09-17T06:49:15;6.70;;;2.10;;
63038;SDS011;49125;48.812;9.206;2022-09-17T06:51:41;7.40;;;2.50;;
63038;SDS011;49125;48.812;9.206;2022-09-17T06:54:07;5.03;;;2.10;;
63038;SDS011;49125;48.812;9.206;2022-09-17T06:56:33;5.77;;;2.07;;
63038;SDS011;49125;48.812;9.206;2022-09-17T06:58:59;6.00;;;2.53;;
63038;SDS011;49125;48.812;9.206;2022-09-17T07:01:25;4.40;;;1.80;;
63038;SDS011;49125;48.812;9.206;2022-09-17T07:03:50;7.73;;;2.30;;
63038;SDS011;49125;48.812;9.206;2022-09-17T07:06:16;4.30;;;2.37;;
63038;SDS011;49125;48.812;9.206;2022-09-17T07:08:42;4.83;;;1.83;;
63038;SDS011;49125;48.812;9.206;2022-09-17T07:11:08;5.93;;;2.20;;
63038;SDS011;49125;48.812;9.206;2022-09-17T07:13:33;11.33;;;6.73;;
63038;SDS011;49125;48.812;9.206;2022-09-17T07:16:00;5.10;;;2.40;;
63038;SDS011;49125;48.812;9.206;2022-09-17T07:18:26;6.37;;;2.27;;
63038;SDS011;49125;48.812;9.206;2022-09-17T07:20:52;4.47;;;1.90;;
63038;SDS011;49125;48.812;9.206;2022-09-17T07:23:29;3.83;;;1.90;;
63038;SDS011;49125;48.812;9.206;2022-09-17T07:25:57;6.87;;;1.97;;
63038;SDS011;49125;48.812;9.206;2022-09-17T07:28:24;5.30;;;2.00;;
63038;SDS011;49125;48.812;9.206;2022-09-17T07:30:50;7.33;;;3.00;;
63038;SDS011;49125;48.812;9.206;2022-09-17T07:33:17;5.47;;;2.13;;
63038;SDS011;49125;48.812;9.206;2022-09-17T07:36:00;6.07;;;2.50;;
63038;SDS011;49125;48.812;9.206;2022-09-17T07:38:28;8.50;;;2.80;;
63038;SDS011;49125;48.812;9.206;2022-09-17T07:43:24;6.63;;;2.43;;
63038;SDS011;49125;48.812;9.206;2022-09-17T07:45:51;4.53;;;2.40;;
63038;SDS011;49125;48.812;9.206;2022-09-17T07:48:18;4.07;;;2.67;;
63038;SDS011;49125;48.812;9.206;2022-09-17T07:50:44;6.00;;;2.90;;
63038;SDS011;49125;48.812;9.206;2022-09-17T07:53:09;4.17;;;2.47;;
63038;SDS011;49125;48.812;9.206;2022-09-17T07:55:35;6.77;;;2.60;;
63038;SDS011;49125;48.812;9.206;2022-09-17T07:58:01;5.77;;;2.53;;
63038;SDS011;49125;48.812;9.206;2022-09-17T08:00:26;3.47;;;2.40;;
63038;SDS011;49125;48.812;9.206;2022-09-17T08:02:52;3.60;;;2.60;;
63038;SDS011;49125;48.812;9.206;2022-09-17T08:05:18;4.20;;;2.30;;
63038;SDS011;49125;48.812;9.206;2022-09-17T08:07:48;5.03;;;2.53;;
63038;SDS011;49125;48.812;9.206;2022-09-17T08:10:17;5.10;;;2.43;;
63038;SDS011;49125;48.812;9.206;2022-09-17T08:12:46;3.50;;;2.30;;
63038;SDS011;49125;48.812;9.206;2022-09-17T08:15:15;5.30;;;2.33;;
63038;SDS011;49125;48.812;9.206;2022-09-17T08:17:42;6.13;;;2.90;;
63038;SDS011;49125;48.812;9.206;2022-09-17T08:20:08;6.47;;;2.77;;
63038;SDS011;49125;48.812;9.206;2022-09-17T08:22:34;4.50;;;2.23;;
63038;SDS011;49125;48.812;9.206;2022-09-17T08:25:00;8.73;;;2.40;;
63038;SDS011;49125;48.812;9.206;2022-09-17T08:27:28;5.60;;;2.70;;
63038;SDS011;49125;48.812;9.206;2022-09-17T08:29:55;5.10;;;2.50;;
63038;SDS011;49125;48.812;9.206;2022-09-17T08:32:21;5.50;;;2.40;;
63038;SDS011;49125;48.812;9.206;2022-09-17T08:34:46;5.77;;;2.43;;
63038;SDS011;49125;48.812;9.206;2022-09-17T08:37:12;6.73;;;2.70;;
63038;SDS011;49125;48.812;9.206;2022-09-17T08:39:37;8.03;;;2.83;;
63038;SDS011;49125;48.812;9.206;2022-09-17T08:45:04;6.60;;;2.40;;
63038;SDS011;49125;48.812;9.206;2022-09-17T08:47:38;4.23;;;2.50;;
63038;SDS011;49125;48.812;9.206;2022-09-17T08:50:13;9.47;;;3.33;;
63038;SDS011;49125;48.812;9.206;2022-09-17T08:55:42;9.37;;;2.63;;
63038;SDS011;49125;48.812;9.206;2022-09-17T09:00:58;7.97;;;2.63;;
63038;SDS011;49125;48.812;9.206;2022-09-17T09:06:34;9.37;;;2.83;;
63038;SDS011;49125;48.812;9.206;2022-09-17T09:09:07;6.80;;;2.57;;
63038;SDS011;49125;48.812;9.206;2022-09-17T09:11:39;9.73;;;2.60;;
63038;SDS011;49125;48.812;9.206;2022-09-17T09:14:11;9.30;;;2.97;;
63038;SDS011;49125;48.812;9.206;2022-09-17T09:16:43;5.30;;;2.22;;
63038;SDS011;49125;48.812;9.206;2022-09-17T09:19:15;7.17;;;2.43;;
63038;SDS011;49125;48.812;9.206;2022-09-17T09:22:01;10.07;;;2.67;;
63038;SDS011;49125;48.812;9.206;2022-09-17T09:29:52;7.43;;;2.77;;
63038;SDS011;49125;48.812;9.206;2022-09-17T09:35:17;7.30;;;2.30;;
63038;SDS011;49125;48.812;9.206;2022-09-17T09:37:45;9.10;;;2.90;;
63038;SDS011;49125;48.812;9.206;2022-09-17T09:57:07;7.22;;;2.67;;
63038;SDS011;49125;48.812;9.206;2022-09-17T09:59:36;10.40;;;2.80;;
63038;SDS011;49125;48.812;9.206;2022-09-17T10:02:02;6.93;;;2.50;;
63038;SDS011;49125;48.812;9.206;2022-09-17T10:04:29;4.18;;;2.22;;
63038;SDS011;49125;48.812;9.206;2022-09-17T10:09:30;6.00;;;2.63;;
63038;SDS011;49125;48.812;9.206;2022-09-17T10:12:00;6.80;;;2.35;;
63038;SDS011;49125;48.812;9.206;2022-09-17T10:14:32;6.05;;;2.30;;
63038;SDS011;49125;48.812;9.206;2022-09-17T10:17:22;5.40;;;2.22;;
63038;SDS011;49125;48.812;9.206;2022-09-17T10:22:41;7.97;;;2.42;;
63038;SDS011;49125;48.812;9.206;2022-09-17T10:25:29;5.47;;;2.13;;
63038;SDS011;49125;48.812;9.206;2022-09-17T10:27:58;5.30;;;2.30;;
63038;SDS011;49125;48.812;9.206;2022-09-17T10:30:26;8.20;;;2.60;;
63038;SDS011;49125;48.812;9.206;2022-09-17T10:33:14;6.45;;;2.40;;
63038;SDS011;49125;48.812;9.206;2022-09-17T10:38:31;8.32;;;1.90;;
63038;SDS011;49125;48.812;9.206;2022-09-17T10:41:10;3.55;;;1.63;;
63038;SDS011;49125;48.812;9.206;2022-09-17T10:43:36;5.65;;;2.38;;
63038;SDS011;49125;48.812;9.206;2022-09-17T10:46:02;5.45;;;2.17;;
63038;SDS011;49125;48.812;9.206;2022-09-17T10:48:31;7.30;;;1.77;;
63038;SDS011;49125;48.812;9.206;2022-09-17T10:51:08;4.93;;;1.90;;
63038;SDS011;49125;48.812;9.206;2022-09-17T10:53:56;3.72;;;1.88;;
63038;SDS011;49125;48.812;9.206;2022-09-17T10:56:33;4.50;;;2.13;;
63038;SDS011;49125;48.812;9.206;2022-09-17T11:09:31;2.78;;;1.60;;
63038;SDS011;49125;48.812;9.206;2022-09-17T11:12:27;6.97;;;1.50;;
63038;SDS011;49125;48.812;9.206;2022-09-17T11:29:49;3.47;;;1.70;;
63038;SDS011;49125;48.812;9.206;2022-09-17T11:35:23;4.65;;;2.03;;
63038;SDS011;49125;48.812;9.206;2022-09-17T11:40:42;4.57;;;1.67;;
63038;SDS011;49125;48.812;9.206;2022-09-17T11:43:23;4.60;;;1.75;;
63038;SDS011;49125;48.812;9.206;2022-09-17T11:45:59;5.90;;;1.70;;
63038;SDS011;49125;48.812;9.206;2022-09-17T11:48:38;3.42;;;1.38;;
63038;SDS011;49125;48.812;9.206;2022-09-17T11:54:15;2.58;;;1.17;;
63038;SDS011;49125;48.812;9.206;2022-09-17T11:56:44;5.93;;;1.77;;
63038;SDS011;49125;48.812;9.206;2022-09-17T12:02:13;6.20;;;1.85;;
63038;SDS011;49125;48.812;9.206;2022-09-17T12:05:05;6.10;;;1.70;;
63038;SDS011;49125;48.812;9.206;2022-09-17T12:12:57;2.35;;;1.33;;
63038;SDS011;49125;48.812;9.206;2022-09-17T12:15:28;5.47;;;1.30;;
63038;SDS011;49125;48.812;9.206;2022-09-17T12:20:52;6.20;;;1.75;;
63038;SDS011;49125;48.812;9.206;2022-09-17T12:23:29;2.78;;;1.80;;
63038;SDS011;49125;48.812;9.206;2022-09-17T12:31:52;3.40;;;1.75;;
63038;SDS011;49125;48.812;9.206;2022-09-17T12:34:39;4.22;;;1.80;;
63038;SDS011;49125;48.812;9.206;2022-09-17T12:42:28;3.80;;;1.85;;
63038;SDS011;49125;48.812;9.206;2022-09-17T12:50:51;4.18;;;1.77;;
63038;SDS011;49125;48.812;9.206;2022-09-17T12:53:35;3.13;;;1.50;;
63038;SDS011;49125;48.812;9.206;2022-09-17T12:58:59;3.33;;;1.50;;
63038;SDS011;49125;48.812;9.206;2022-09-17T13:01:48;4.22;;;1.50;;
63038;SDS011;49125;48.812;9.206;2022-09-17T13:04:57;2.83;;;1.45;;
63038;SDS011;49125;48.812;9.206;2022-09-17T13:16:10;3.63;;;1.17;;
63038;SDS011;49125;48.812;9.206;2022-09-17T13:21:23;3.50;;;1.30;;
63038;SDS011;49125;48.812;9.206;2022-09-17T13:23:56;1.50;;;1.40;;
63038;SDS011;49125;48.812;9.206;2022-09-17T13:26:31;1.73;;;1.00;;
63038;SDS011;49125;48.812;9.206;2022-09-17T13:28:59;3.53;;;1.10;;
63038;SDS011;49125;48.812;9.206;2022-09-17T13:34:02;2.17;;;1.25;;
63038;SDS011;49125;48.812;9.206;2022-09-17T13:36:50;2.45;;;1.20;;
63038;SDS011;49125;48.812;9.206;2022-09-17T13:42:09;1.00;;;0.80;;
63038;SDS011;49125;48.812;9.206;2022-09-17T13:45:13;1.88;;;0.90;;
63038;SDS011;49125;48.812;9.206;2022-09-17T13:50:35;3.17;;;0.80;;
63038;SDS011;49125;48.812;9.206;2022-09-17T13:55:37;1.85;;;1.00;;
63038;SDS011;49125;48.812;9.206;2022-09-17T14:00:48;2.25;;;1.00;;
63038;SDS011;49125;48.812;9.206;2022-09-17T14:05:52;2.53;;;1.40;;
63038;SDS011;49125;48.812;9.206;2022-09-17T14:08:28;1.63;;;1.00;;
63038;SDS011;49125;48.812;9.206;2022-09-17T14:10:58;4.88;;;1.33;;
63038;SDS011;49125;48.812;9.206;2022-09-17T14:16:00;2.05;;;0.98;;
63038;SDS011;49125;48.812;9.206;2022-09-17T14:20:52;3.47;;;1.10;;
63038;SDS011;49125;48.812;9.206;2022-09-17T14:23:34;2.55;;;1.27;;
63038;SDS011;49125;48.812;9.206;2022-09-17T14:26:08;2.97;;;1.17;;
63038;SDS011;49125;48.812;9.206;2022-09-17T14:28:42;1.75;;;1.33;;
63038;SDS011;49125;48.812;9.206;2022-09-17T14:31:21;4.18;;;1.60;;
63038;SDS011;49125;48.812;9.206;2022-09-17T14:33:51;2.65;;;1.27;;
63038;SDS011;49125;48.812;9.206;2022-09-17T14:36:18;1.73;;;1.30;;
63038;SDS011;49125;48.812;9.206;2022-09-17T14:38:46;2.70;;;1.17;;
63038;SDS011;49125;48.812;9.206;2022-09-17T14:41:19;1.75;;;1.50;;
63038;SDS011;49125;48.812;9.206;2022-09-17T14:43:57;2.03;;;1.30;;
63038;SDS011;49125;48.812;9.206;2022-09-17T14:46:30;2.15;;;1.25;;
63038;SDS011;49125;48.812;9.206;2022-09-17T14:49:12;3.70;;;1.38;;
63038;SDS011;49125;48.812;9.206;2022-09-17T14:51:39;2.70;;;1.30;;
63038;SDS011;49125;48.812;9.206;2022-09-17T14:56:35;4.88;;;1.55;;
63038;SDS011;49125;48.812;9.206;2022-09-17T14:59:08;3.70;;;1.60;;
63038;SDS011;49125;48.812;9.206;2022-09-17T15:01:45;5.10;;;1.45;;
63038;SDS011;49125;48.812;9.206;2022-09-17T15:06:38;2.38;;;1.40;;
63038;SDS011;49125;48.812;9.206;2022-09-17T15:09:04;4.63;;;1.40;;
63038;SDS011;49125;48.812;9.206;2022-09-17T15:11:30;3.20;;;1.58;;
63038;SDS011;49125;48.812;9.206;2022-09-17T15:14:04;2.65;;;1.30;;
63038;SDS011;49125;48.812;9.206;2022-09-17T15:16:35;3.35;;;1.70;;
63038;SDS011;49125;48.812;9.206;2022-09-17T15:19:00;3.95;;;1.88;;
63038;SDS011;49125;48.812;9.206;2022-09-17T15:21:35;3.22;;;1.80;;
63038;SDS011;49125;48.812;9.206;2022-09-17T15:27:04;3.47;;;1.50;;
63038;SDS011;49125;48.812;9.206;2022-09-17T15:29:46;4.97;;;1.80;;
63038;SDS011;49125;48.812;9.206;2022-09-17T15:32:53;4.50;;;1.70;;
63038;SDS011;49125;48.812;9.206;2022-09-17T15:38:02;4.50;;;1.80;;
63038;SDS011;49125;48.812;9.206;2022-09-17T15:40:43;3.15;;;1.52;;
63038;SDS011;49125;48.812;9.206;2022-09-17T15:45:51;5.10;;;1.75;;
63038;SDS011;49125;48.812;9.206;2022-09-17T15:50:56;2.97;;;1.10;;
63038;SDS011;49125;48.812;9.206;2022-09-17T15:53:23;6.57;;;1.88;;
63038;SDS011;49125;48.812;9.206;2022-09-17T15:56:06;3.78;;;1.60;;
63038;SDS011;49125;48.812;9.206;2022-09-17T16:08:45;3.38;;;1.63;;
63038;SDS011;49125;48.812;9.206;2022-09-17T16:11:13;4.30;;;2.03;;
63038;SDS011;49125;48.812;9.206;2022-09-17T16:13:44;3.90;;;1.70;;
63038;SDS011;49125;48.812;9.206;2022-09-17T16:16:18;4.17;;;1.63;;
63038;SDS011;49125;48.812;9.206;2022-09-17T16:18:45;3.00;;;1.60;;
63038;SDS011;49125;48.812;9.206;2022-09-17T16:21:13;4.33;;;2.00;;
63038;SDS011;49125;48.812;9.206;2022-09-17T16:23:40;6.00;;;1.97;;
63038;SDS011;49125;48.812;9.206;2022-09-17T16:26:06;3.20;;;1.53;;
63038;SDS011;49125;48.812;9.206;2022-09-17T16:28:37;5.00;;;1.50;;
63038;SDS011;49125;48.812;9.206;2022-09-17T16:31:04;1.93;;;1.23;;
63038;SDS011;49125;48.812;9.206;2022-09-17T16:33:30;4.78;;;1.67;;
63038;SDS011;49125;48.812;9.206;2022-09-17T16:35:56;3.85;;;1.58;;
63038;SDS011;49125;48.812;9.206;2022-09-17T16:38:23;3.92;;;2.00;;
63038;SDS011;49125;48.812;9.206;2022-09-17T16:40:50;3.83;;;1.90;;
63038;SDS011;49125;48.812;9.206;2022-09-17T16:43:15;3.53;;;2.00;;
63038;SDS011;49125;48.812;9.206;2022-09-17T16:45:41;3.85;;;2.20;;
63038;SDS011;49125;48.812;9.206;2022-09-17T16:48:07;4.28;;;1.90;;
63038;SDS011;49125;48.812;9.206;2022-09-17T16:50:33;4.70;;;1.88;;
63038;SDS011;49125;48.812;9.206;2022-09-17T16:52:58;3.40;;;1.70;;
63038;SDS011;49125;48.812;9.206;2022-09-17T16:55:24;4.55;;;2.00;;
63038;SDS011;49125;48.812;9.206;2022-09-17T16:57:50;3.03;;;1.63;;
63038;SDS011;49125;48.812;9.206;2022-09-17T17:00:17;6.57;;;2.00;;
63038;SDS011;49125;48.812;9.206;2022-09-17T17:02:50;3.45;;;1.80;;
63038;SDS011;49125;48.812;9.206;2022-09-17T17:05:18;2.30;;;1.60;;
63038;SDS011;49125;48.812;9.206;2022-09-17T17:07:43;5.95;;;1.70;;
63038;SDS011;49125;48.812;9.206;2022-09-17T17:10:09;4.03;;;1.80;;
63038;SDS011;49125;48.812;9.206;2022-09-17T17:12:35;9.02;;;2.20;;
63038;SDS011;49125;48.812;9.206;2022-09-17T17:15:01;6.40;;;2.40;;
63038;SDS011;49125;48.812;9.206;2022-09-17T17:17:30;5.13;;;2.43;;
63038;SDS011;49125;48.812;9.206;2022-09-17T17:19:56;3.07;;;1.70;;
63038;SDS011;49125;48.812;9.206;2022-09-17T17:22:21;6.10;;;2.30;;
63038;SDS011;49125;48.812;9.206;2022-09-17T17:24:47;6.97;;;2.00;;
63038;SDS011;49125;48.812;9.206;2022-09-17T17:27:13;3.90;;;1.90;;
63038;SDS011;49125;48.812;9.206;2022-09-17T17:29:38;5.30;;;2.67;;
63038;SDS011;49125;48.812;9.206;2022-09-17T17:32:04;5.67;;;2.53;;
63038;SDS011;49125;48.812;9.206;2022-09-17T17:34:31;4.77;;;2.03;;
63038;SDS011;49125;48.812;9.206;2022-09-17T17:36:56;4.83;;;1.83;;
63038;SDS011;49125;48.812;9.206;2022-09-17T17:39:22;6.80;;;1.80;;
63038;SDS011;49125;48.812;9.206;2022-09-17T17:41:48;3.07;;;1.67;;
63038;SDS011;49125;48.812;9.206;2022-09-17T17:44:14;3.87;;;1.97;;
63038;SDS011;49125;48.812;9.206;2022-09-17T17:46:39;3.03;;;2.00;;
63038;SDS011;49125;48.812;9.206;2022-09-17T17:49:05;4.27;;;1.87;;
63038;SDS011;49125;48.812;9.206;2022-09-17T17:51:32;4.40;;;2.27;;
63038;SDS011;49125;48.812;9.206;2022-09-17T17:53:58;5.93;;;2.30;;
63038;SDS011;49125;48.812;9.206;2022-09-17T17:56:23;4.73;;;2.10;;
63038;SDS011;49125;48.812;9.206;2022-09-17T17:58:53;6.83;;;2.30;;
63038;SDS011;49125;48.812;9.206;2022-09-17T18:01:24;5.17;;;2.20;;
63038;SDS011;49125;48.812;9.206;2022-09-17T18:03:55;3.83;;;2.30;;
63038;SDS011;49125;48.812;9.206;2022-09-17T18:06:25;4.77;;;2.17;;
63038;SDS011;49125;48.812;9.206;2022-09-17T18:08:51;5.53;;;2.47;;
63038;SDS011;49125;48.812;9.206;2022-09-17T18:11:17;7.93;;;2.70;;
63038;SDS011;49125;48.812;9.206;2022-09-17T18:13:43;4.07;;;2.17;;
63038;SDS011;49125;48.812;9.206;2022-09-17T18:16:09;4.70;;;2.20;;
63038;SDS011;49125;48.812;9.206;2022-09-17T18:18:37;4.33;;;1.90;;